createdAt,value
2022-10-10T00:01:11.851Z,3.53
2022-10-10T00:03:39.094Z,1.65
2022-10-10T00:06:06.546Z,2.25
2022-10-10T00:08:33.567Z,2.90
2022-10-10T00:11:00.325Z,1.20
2022-10-10T00:13:27.340Z,2.13
2022-10-10T00:15:54.161Z,1.55
2022-10-10T00:18:21.413Z,2.67
2022-10-10T00:20:49.855Z,2.13
2022-10-10T00:23:16.690Z,1.27
2022-10-10T00:25:43.585Z,1.35
2022-10-10T00:28:10.479Z,1.20
2022-10-10T00:30:37.281Z,1.45
2022-10-10T00:33:04.120Z,1.35
2022-10-10T00:35:31.121Z,2.75
2022-10-10T00:37:57.939Z,2.53
2022-10-10T00:40:25.132Z,1.55
2022-10-10T00:42:52.232Z,1.55
2022-10-10T00:45:24.837Z,1.10
2022-10-10T00:47:54.304Z,1.38
2022-10-10T00:50:22.801Z,1.45
2022-10-10T00:52:50.628Z,1.35
2022-10-10T00:55:18.316Z,2.60
2022-10-10T00:57:45.475Z,2.10
2022-10-10T01:00:13.351Z,4.05
2022-10-10T01:02:40.279Z,1.80
2022-10-10T01:05:07.379Z,2.15
2022-10-10T01:07:34.621Z,3.90
2022-10-10T01:10:08.167Z,1.98
2022-10-10T01:12:43.800Z,2.33
2022-10-10T01:15:38.573Z,3.50
2022-10-10T01:18:35.409Z,4.07
2022-10-10T01:21:26.653Z,1.30
2022-10-10T01:24:21.932Z,1.52
2022-10-10T01:27:09.849Z,3.53
2022-10-10T01:29:43.731Z,1.63
2022-10-10T01:32:26.532Z,2.00
2022-10-10T01:35:05.681Z,3.25
2022-10-10T01:38:07.317Z,1.35
2022-10-10T01:40:38.539Z,1.20
2022-10-10T01:43:08.469Z,1.38
2022-10-10T01:45:35.763Z,2.13
2022-10-10T01:48:05.179Z,1.77
2022-10-10T01:50:59.224Z,2.47
2022-10-10T01:53:34.563Z,1.40
2022-10-10T01:56:19.313Z,1.98
2022-10-10T02:01:37.321Z,1.60
2022-10-10T02:04:06.837Z,1.48
2022-10-10T02:06:40.555Z,2.38
2022-10-10T02:09:11.619Z,1.98
2022-10-10T02:11:39.857Z,3.67
2022-10-10T02:14:31.483Z,1.50
2022-10-10T02:17:00.939Z,1.52
2022-10-10T02:19:29.575Z,2.08
2022-10-10T02:21:56.727Z,1.92
2022-10-10T02:24:24.824Z,1.35
2022-10-10T02:27:00.483Z,1.98
2022-10-10T02:29:31.788Z,1.45
2022-10-10T02:32:11.372Z,1.50
2022-10-10T02:34:43.479Z,1.40
2022-10-10T02:37:13.080Z,1.58
2022-10-10T02:39:44.510Z,1.90
2022-10-10T02:42:14.504Z,1.35
2022-10-10T02:44:42.362Z,1.40
2022-10-10T02:47:09.313Z,2.55
2022-10-10T02:49:36.183Z,1.23
2022-10-10T02:52:03.755Z,2.00
2022-10-10T02:54:30.531Z,1.65
2022-10-10T02:56:57.344Z,1.27
2022-10-10T02:59:24.464Z,1.48
2022-10-10T03:01:51.556Z,1.35
2022-10-10T03:04:18.584Z,1.75
2022-10-10T03:06:45.975Z,1.25
2022-10-10T03:09:12.740Z,2.88
2022-10-10T03:11:39.504Z,1.83
2022-10-10T03:14:06.461Z,2.55
2022-10-10T03:16:33.400Z,1.60
2022-10-10T03:19:00.352Z,2.63
2022-10-10T03:21:27.165Z,1.63
2022-10-10T03:23:53.930Z,1.90
2022-10-10T03:26:21.160Z,2.38
2022-10-10T03:28:47.938Z,1.25
2022-10-10T03:31:14.725Z,2.08
2022-10-10T03:33:41.500Z,1.40
2022-10-10T03:36:08.545Z,1.38
2022-10-10T03:38:35.429Z,1.48
2022-10-10T03:41:02.210Z,1.77
2022-10-10T03:43:29.017Z,1.88
2022-10-10T03:45:55.845Z,1.73
2022-10-10T03:48:22.671Z,1.85
2022-10-10T03:50:49.727Z,2.67
2022-10-10T03:53:16.560Z,1.88
2022-10-10T03:55:43.721Z,1.52
2022-10-10T03:58:11.181Z,2.05
2022-10-10T04:00:38.376Z,1.27
2022-10-10T04:03:06.522Z,1.33
2022-10-10T04:05:36.110Z,1.27
2022-10-10T04:08:04.164Z,1.65
2022-10-10T04:10:31.131Z,1.60
2022-10-10T04:12:58.753Z,2.55
2022-10-10T04:15:25.702Z,1.77
2022-10-10T04:17:52.509Z,1.25
2022-10-10T04:20:19.943Z,1.38
2022-10-10T04:22:46.975Z,2.95
2022-10-10T04:25:14.009Z,1.50
2022-10-10T04:27:40.847Z,1.67
2022-10-10T04:30:08.180Z,3.80
2022-10-10T04:32:34.943Z,1.65
2022-10-10T04:35:01.919Z,1.50
2022-10-10T04:37:28.694Z,5.68
2022-10-10T04:39:55.793Z,2.20
2022-10-10T04:42:22.944Z,2.05
2022-10-10T04:44:49.958Z,1.58
2022-10-10T04:47:17.044Z,1.52
2022-10-10T04:49:43.993Z,2.53
2022-10-10T04:52:11.537Z,1.88
2022-10-10T04:54:38.296Z,1.70
2022-10-10T04:57:05.379Z,1.42
2022-10-10T04:59:33.174Z,3.72
2022-10-10T05:02:01.839Z,1.98
2022-10-10T05:04:29.191Z,3.63
2022-10-10T05:06:56.090Z,2.97
2022-10-10T05:09:23.044Z,1.48
2022-10-10T05:11:49.924Z,1.25
2022-10-10T05:14:16.835Z,5.60
2022-10-10T05:16:43.584Z,1.48
2022-10-10T05:19:10.402Z,1.80
2022-10-10T05:21:37.170Z,1.67
2022-10-10T05:24:04.339Z,1.67
2022-10-10T05:26:31.163Z,3.90
2022-10-10T05:28:58.111Z,1.95
2022-10-10T05:31:25.545Z,1.65
2022-10-10T05:33:52.390Z,1.50
2022-10-10T05:36:19.224Z,1.63
2022-10-10T05:38:46.075Z,1.50
2022-10-10T05:41:12.898Z,1.48
2022-10-10T05:43:39.950Z,1.50
2022-10-10T05:46:06.811Z,4.38
2022-10-10T05:48:33.798Z,1.75
2022-10-10T05:51:01.620Z,1.20
2022-10-10T05:53:30.182Z,1.38
2022-10-10T05:55:57.588Z,2.08
2022-10-10T05:58:25.882Z,1.70
2022-10-10T06:00:52.910Z,2.88
2022-10-10T06:03:19.814Z,1.60
2022-10-10T06:05:50.748Z,2.03
2022-10-10T06:08:17.688Z,1.45
2022-10-10T06:10:46.206Z,1.92
2022-10-10T06:13:14.833Z,4.05
2022-10-10T06:15:41.679Z,4.75
2022-10-10T06:18:09.276Z,3.05
2022-10-10T06:20:37.297Z,2.50
2022-10-10T06:23:04.862Z,3.67
2022-10-10T06:25:42.184Z,1.73
2022-10-10T06:28:10.535Z,2.95
2022-10-10T06:30:41.885Z,5.72
2022-10-10T06:33:09.185Z,3.03
2022-10-10T06:35:41.703Z,2.33
2022-10-10T06:38:09.024Z,2.22
2022-10-10T06:40:35.977Z,3.17
2022-10-10T06:43:04.558Z,1.73
2022-10-10T06:45:36.322Z,1.63
2022-10-10T06:48:03.391Z,2.30
2022-10-10T06:50:30.261Z,2.70
2022-10-10T06:52:57.045Z,2.90
2022-10-10T06:55:23.885Z,4.97
2022-10-10T06:57:50.692Z,3.20
2022-10-10T07:00:17.806Z,1.70
2022-10-10T07:02:44.853Z,2.72
2022-10-10T07:05:13.568Z,2.33
2022-10-10T07:07:40.458Z,2.22
2022-10-10T07:10:11.023Z,2.83
2022-10-10T07:12:44.211Z,3.72
2022-10-10T07:15:11.886Z,1.80
2022-10-10T07:17:38.757Z,1.83
2022-10-10T07:20:06.134Z,3.78
2022-10-10T07:22:33.411Z,1.80
2022-10-10T07:25:00.313Z,3.53
2022-10-10T07:27:27.238Z,1.92
2022-10-10T07:29:54.202Z,2.22
2022-10-10T07:32:21.138Z,1.83
2022-10-10T07:34:47.945Z,3.25
2022-10-10T07:37:14.780Z,5.03
2022-10-10T07:39:41.623Z,3.45
2022-10-10T07:42:09.267Z,2.80
2022-10-10T07:44:36.027Z,2.58
2022-10-10T07:47:02.805Z,4.57
2022-10-10T07:49:29.596Z,3.10
2022-10-10T07:51:58.891Z,4.18
2022-10-10T07:54:28.902Z,4.97
2022-10-10T07:56:55.727Z,3.15
2022-10-10T07:59:23.444Z,8.18
2022-10-10T08:01:51.232Z,4.18
2022-10-10T08:04:18.353Z,4.13
2022-10-10T08:06:45.146Z,6.15
2022-10-10T08:09:12.107Z,2.78
2022-10-10T08:11:38.865Z,3.03
2022-10-10T08:14:05.968Z,2.97
2022-10-10T08:16:33.141Z,3.83
2022-10-10T08:18:59.989Z,5.13
2022-10-10T08:21:26.839Z,6.45
2022-10-10T08:23:53.613Z,7.55
2022-10-10T08:26:20.642Z,3.75
2022-10-10T08:28:48.678Z,4.75
2022-10-10T08:31:18.937Z,9.70
2022-10-10T08:33:47.206Z,2.88
2022-10-10T08:36:16.814Z,3.13
2022-10-10T08:38:43.965Z,5.88
2022-10-10T08:41:20.653Z,2.90
2022-10-10T08:43:54.507Z,4.28
2022-10-10T08:46:33.212Z,3.17
2022-10-10T08:49:13.964Z,4.07
2022-10-10T08:51:42.907Z,4.32
2022-10-10T08:54:12.281Z,3.08
2022-10-10T08:56:41.198Z,4.00
2022-10-10T08:59:16.195Z,2.78
2022-10-10T09:02:17.561Z,4.03
2022-10-10T09:04:33.552Z,6.30
2022-10-10T09:07:33.000Z,2.50
2022-10-10T09:10:11.889Z,5.53
2022-10-10T09:12:54.145Z,2.72
2022-10-10T09:15:26.300Z,2.63
2022-10-10T09:18:11.702Z,5.00
2022-10-10T09:20:50.691Z,2.88
2022-10-10T09:23:22.484Z,3.63
2022-10-10T09:25:58.359Z,3.40
2022-10-10T09:28:37.142Z,2.67
2022-10-10T09:31:15.397Z,2.85
2022-10-10T09:33:56.308Z,2.92
2022-10-10T09:36:28.153Z,6.63
2022-10-10T09:39:00.295Z,3.33
2022-10-10T09:41:41.358Z,3.40
2022-10-10T09:44:13.445Z,3.15
2022-10-10T09:46:40.493Z,3.17
2022-10-10T09:49:07.475Z,3.05
2022-10-10T09:51:34.504Z,3.65
2022-10-10T09:54:02.386Z,3.22
2022-10-10T09:56:40.253Z,4.03
2022-10-10T09:59:40.806Z,4.72
2022-10-10T10:02:19.499Z,2.60
2022-10-10T10:04:47.561Z,4.35
2022-10-10T10:07:26.475Z,3.25
2022-10-10T10:09:55.069Z,4.68
2022-10-10T10:12:29.432Z,4.43
2022-10-10T10:17:28.974Z,6.30
2022-10-10T10:19:55.954Z,7.28
2022-10-10T10:22:38.704Z,5.22
2022-10-10T10:25:37.071Z,3.58
2022-10-10T10:28:15.655Z,3.08
2022-10-10T10:30:43.985Z,4.97
2022-10-10T10:33:16.627Z,2.92
2022-10-10T10:36:25.099Z,3.97
2022-10-10T10:39:28.814Z,4.82
2022-10-10T10:42:07.980Z,4.10
2022-10-10T10:44:53.712Z,2.95
2022-10-10T10:47:43.300Z,2.63
2022-10-10T10:50:41.649Z,7.40
2022-10-10T10:53:33.399Z,2.40
2022-10-10T10:56:37.210Z,4.13
2022-10-10T11:00:26.619Z,3.63
2022-10-10T11:02:54.734Z,2.33
2022-10-10T11:05:31.930Z,2.28
2022-10-10T11:08:10.825Z,2.95
2022-10-10T11:10:59.548Z,3.95
2022-10-10T11:13:54.448Z,2.65
2022-10-10T11:16:47.469Z,3.33
2022-10-10T11:19:29.514Z,4.73
2022-10-10T11:22:09.596Z,4.85
2022-10-10T11:24:48.683Z,7.70
2022-10-10T11:27:34.267Z,4.68
2022-10-10T11:30:06.464Z,3.35
2022-10-10T11:32:40.307Z,5.05
2022-10-10T11:35:44.886Z,4.07
2022-10-10T11:38:25.052Z,5.23
2022-10-10T11:41:23.995Z,2.85
2022-10-10T11:43:53.512Z,2.33
2022-10-10T11:46:47.215Z,9.27
2022-10-10T11:49:13.968Z,7.00
2022-10-10T11:52:04.893Z,5.38
2022-10-10T11:54:44.927Z,3.50
2022-10-10T11:57:18.663Z,4.97
2022-10-10T11:59:51.968Z,2.23
2022-10-10T12:02:30.810Z,2.42
2022-10-10T12:04:57.933Z,2.30
2022-10-10T12:07:43.655Z,5.85
2022-10-10T12:10:22.900Z,4.03
2022-10-10T12:12:53.218Z,3.22
2022-10-10T12:15:31.017Z,6.07
2022-10-10T12:17:58.710Z,2.72
2022-10-10T12:20:25.484Z,3.40
2022-10-10T12:23:13.742Z,2.85
2022-10-10T12:25:46.063Z,5.05
2022-10-10T12:28:13.004Z,6.18
2022-10-10T12:30:58.188Z,8.68
2022-10-10T12:33:31.571Z,8.13
2022-10-10T12:36:22.333Z,3.70
2022-10-10T12:39:10.876Z,5.65
2022-10-10T12:41:52.775Z,3.97
2022-10-10T12:44:24.156Z,3.47
2022-10-10T12:47:15.810Z,6.18
2022-10-10T12:50:03.541Z,4.40
2022-10-10T12:52:48.292Z,3.95
2022-10-10T12:57:47.173Z,2.22
2022-10-10T13:00:23.433Z,4.65
2022-10-10T13:02:55.256Z,5.97
2022-10-10T13:05:39.318Z,3.45
2022-10-10T13:08:11.881Z,5.60
2022-10-10T13:10:38.987Z,4.13
2022-10-10T13:13:19.152Z,6.53
2022-10-10T13:15:59.814Z,4.32
2022-10-10T13:18:56.449Z,4.28
2022-10-10T13:21:29.692Z,3.20
2022-10-10T13:24:03.477Z,3.95
2022-10-10T13:26:37.951Z,4.78
2022-10-10T13:29:30.335Z,2.70
2022-10-10T13:32:01.868Z,4.22
2022-10-10T13:34:33.201Z,5.95
2022-10-10T13:37:02.290Z,5.03
2022-10-10T13:39:31.443Z,6.50
2022-10-10T13:41:58.829Z,3.33
2022-10-10T13:44:49.797Z,3.58
2022-10-10T13:48:01.362Z,4.93
2022-10-10T13:50:42.454Z,7.38
2022-10-10T13:53:29.003Z,5.93
2022-10-10T13:56:34.039Z,3.08
2022-10-10T13:59:08.346Z,3.75
2022-10-10T14:01:41.902Z,2.92
2022-10-10T14:04:34.996Z,8.87
2022-10-10T14:07:11.780Z,5.05
2022-10-10T14:09:41.391Z,5.07
2022-10-10T14:12:37.730Z,7.90
2022-10-10T14:15:25.753Z,3.20
2022-10-10T14:17:52.522Z,4.35
2022-10-10T14:20:19.377Z,4.90
2022-10-10T14:22:46.322Z,3.53
2022-10-10T14:25:13.203Z,4.15
2022-10-10T14:27:40.087Z,5.82
2022-10-10T14:30:07.586Z,3.97
2022-10-10T14:32:34.445Z,8.07
2022-10-10T14:35:01.270Z,4.70
2022-10-10T14:37:29.165Z,4.50
2022-10-10T14:39:56.352Z,5.30
2022-10-10T14:42:24.384Z,7.10
2022-10-10T14:44:51.639Z,4.88
2022-10-10T14:47:23.733Z,4.00
2022-10-10T14:49:52.672Z,7.43
2022-10-10T14:52:19.453Z,4.53
2022-10-10T14:54:46.271Z,4.07
2022-10-10T14:57:14.294Z,9.07
2022-10-10T14:59:47.505Z,4.65
2022-10-10T15:02:18.193Z,4.65
2022-10-10T15:04:44.968Z,5.05
2022-10-10T15:07:14.027Z,8.80
2022-10-10T15:09:56.439Z,3.30
2022-10-10T15:12:29.711Z,3.15
2022-10-10T15:14:56.476Z,4.60
2022-10-10T15:17:24.423Z,3.80
2022-10-10T15:19:52.167Z,3.80
2022-10-10T15:22:19.397Z,5.47
2022-10-10T15:24:46.221Z,5.03
2022-10-10T15:27:13.409Z,5.70
2022-10-10T15:29:40.259Z,5.78
2022-10-10T15:32:07.457Z,5.10
2022-10-10T15:34:34.871Z,6.57
2022-10-10T15:37:01.636Z,3.33
2022-10-10T15:39:29.277Z,5.35
2022-10-10T15:41:56.305Z,7.15
2022-10-10T15:44:23.092Z,6.13
2022-10-10T15:46:49.860Z,8.45
2022-10-10T15:49:16.621Z,4.75
2022-10-10T15:51:46.456Z,3.60
2022-10-10T15:54:14.479Z,5.13
2022-10-10T15:56:41.775Z,6.75
2022-10-10T15:59:09.520Z,6.80
2022-10-10T16:01:36.945Z,6.78
2022-10-10T16:04:05.144Z,3.80
2022-10-10T16:06:32.960Z,4.82
2022-10-10T16:09:23.416Z,10.85
2022-10-10T16:11:48.852Z,7.50
2022-10-10T16:14:15.652Z,5.32
2022-10-10T16:16:42.516Z,4.35
2022-10-10T16:19:09.296Z,3.00
2022-10-10T16:21:36.190Z,5.63
2022-10-10T16:24:03.165Z,10.63
2022-10-10T16:26:33.885Z,8.45
2022-10-10T16:29:01.668Z,5.18
2022-10-10T16:31:29.470Z,4.93
2022-10-10T16:33:57.715Z,3.63
2022-10-10T16:36:27.674Z,4.95
2022-10-10T16:38:57.353Z,7.68
2022-10-10T16:41:46.431Z,8.90
2022-10-10T16:44:13.631Z,3.90
2022-10-10T16:46:40.426Z,4.15
2022-10-10T16:49:07.277Z,6.15
2022-10-10T16:51:34.180Z,5.60
2022-10-10T16:54:02.470Z,4.10
2022-10-10T16:56:30.278Z,6.97
2022-10-10T16:58:59.555Z,5.65
2022-10-10T17:01:26.587Z,6.13
2022-10-10T17:03:53.507Z,7.00
2022-10-10T17:06:23.027Z,5.55
2022-10-10T17:08:52.299Z,6.53
2022-10-10T17:11:20.600Z,4.93
2022-10-10T17:13:48.093Z,7.55
2022-10-10T17:19:10.636Z,6.55
2022-10-10T17:21:37.462Z,5.60
2022-10-10T17:24:04.431Z,3.38
2022-10-10T17:26:31.271Z,5.03
2022-10-10T17:28:59.321Z,8.32
2022-10-10T17:31:27.293Z,3.95
2022-10-10T17:33:56.122Z,6.05
2022-10-10T17:36:26.460Z,10.20
2022-10-10T17:38:56.122Z,5.22
2022-10-10T17:41:23.448Z,5.82
2022-10-10T17:43:50.429Z,7.45
2022-10-10T17:46:34.189Z,7.25
2022-10-10T17:51:29.992Z,6.90
2022-10-10T17:54:00.076Z,10.05
2022-10-10T17:56:27.288Z,6.20
2022-10-10T17:58:54.698Z,5.03
2022-10-10T18:01:22.897Z,5.80
2022-10-10T18:03:51.385Z,8.75
2022-10-10T18:06:22.191Z,5.40
2022-10-10T18:08:54.021Z,6.70
2022-10-10T18:11:28.193Z,9.38
2022-10-10T18:14:00.879Z,6.50
2022-10-10T18:16:30.763Z,6.90
2022-10-10T18:18:59.070Z,5.57
2022-10-10T18:21:26.062Z,5.28
2022-10-10T18:23:53.628Z,9.90
2022-10-10T18:26:22.945Z,9.30
2022-10-10T18:28:52.478Z,5.93
2022-10-10T18:31:22.165Z,9.50
2022-10-10T18:33:49.398Z,8.13
2022-10-10T18:36:21.653Z,6.72
2022-10-10T18:38:48.888Z,7.65
2022-10-10T18:41:20.080Z,6.05
2022-10-10T18:43:48.381Z,4.68
2022-10-10T18:46:17.551Z,7.68
2022-10-10T18:48:48.029Z,6.22
2022-10-10T18:51:24.045Z,5.65
2022-10-10T18:53:54.726Z,6.07
2022-10-10T18:56:24.555Z,4.57
2022-10-10T18:58:55.873Z,4.05
2022-10-10T19:01:25.113Z,5.30
2022-10-10T19:03:53.276Z,5.63
2022-10-10T19:06:22.257Z,4.38
2022-10-10T19:08:50.143Z,4.65
2022-10-10T19:11:21.572Z,10.20
2022-10-10T19:13:48.776Z,10.68
2022-10-10T19:16:15.910Z,10.60
2022-10-10T19:18:42.939Z,9.40
2022-10-10T19:21:10.295Z,8.73
2022-10-10T19:23:37.508Z,8.50
2022-10-10T19:26:07.348Z,7.35
2022-10-10T19:28:35.485Z,9.20
2022-10-10T19:31:10.890Z,7.57
2022-10-10T19:33:38.321Z,5.75
2022-10-10T19:36:07.562Z,9.55
2022-10-10T19:38:35.273Z,5.40
2022-10-10T19:41:06.451Z,5.85
2022-10-10T19:43:33.734Z,12.27
2022-10-10T19:46:07.606Z,7.28
2022-10-10T19:48:36.915Z,16.83
2022-10-10T19:51:06.072Z,13.50
2022-10-10T19:53:36.072Z,10.35
2022-10-10T19:56:11.241Z,8.10
2022-10-10T19:58:38.792Z,8.93
2022-10-10T20:01:10.450Z,10.85
2022-10-10T20:03:37.721Z,11.98
2022-10-10T20:06:05.215Z,7.85
2022-10-10T20:08:33.347Z,8.90
2022-10-10T20:11:00.208Z,8.68
2022-10-10T20:13:27.428Z,7.70
2022-10-10T20:16:00.022Z,7.20
2022-10-10T20:18:27.384Z,8.98
2022-10-10T20:20:54.311Z,7.43
2022-10-10T20:23:24.194Z,6.95
2022-10-10T20:25:51.306Z,5.38
2022-10-10T20:28:19.795Z,5.53
2022-10-10T20:30:50.060Z,6.78
2022-10-10T20:33:18.603Z,9.93
2022-10-10T20:35:46.879Z,6.45
2022-10-10T20:38:14.251Z,7.05
2022-10-10T20:40:43.606Z,7.18
2022-10-10T20:43:14.916Z,14.65
2022-10-10T20:45:41.800Z,7.82
2022-10-10T20:48:09.763Z,6.50
2022-10-10T20:50:37.880Z,9.07
2022-10-10T20:53:05.396Z,8.93
2022-10-10T20:55:32.305Z,8.45
2022-10-10T20:57:59.350Z,9.18
2022-10-10T21:00:26.118Z,7.55
2022-10-10T21:02:55.877Z,8.38
2022-10-10T21:05:23.104Z,10.30
2022-10-10T21:07:49.943Z,4.90
2022-10-10T21:10:16.847Z,6.85
2022-10-10T21:12:43.740Z,8.63
2022-10-10T21:15:10.859Z,8.23
2022-10-10T21:17:37.638Z,4.93
2022-10-10T21:20:05.626Z,5.90
2022-10-10T21:22:32.662Z,4.45
2022-10-10T21:24:59.497Z,8.57
2022-10-10T21:27:26.427Z,6.05
2022-10-10T21:29:53.217Z,3.33
2022-10-10T21:32:20.270Z,6.68
2022-10-10T21:34:47.039Z,8.85
2022-10-10T21:37:13.816Z,4.60
2022-10-10T21:39:40.613Z,3.75
2022-10-10T21:42:07.455Z,6.88
2022-10-10T21:44:34.299Z,10.13
2022-10-10T21:47:01.154Z,7.63
2022-10-10T21:49:27.901Z,4.00
2022-10-10T21:51:54.651Z,8.40
2022-10-10T21:54:21.712Z,6.18
2022-10-10T21:56:48.522Z,8.27
2022-10-10T21:59:15.274Z,5.18
2022-10-10T22:01:42.684Z,8.77
2022-10-10T22:04:10.016Z,6.57
2022-10-10T22:06:36.840Z,11.25
2022-10-10T22:09:04.435Z,9.32
2022-10-10T22:11:32.544Z,6.72
2022-10-10T22:14:02.139Z,5.85
2022-10-10T22:16:29.496Z,7.43
2022-10-10T22:18:57.137Z,4.47
2022-10-10T22:21:29.368Z,5.30
2022-10-10T22:24:02.040Z,7.70
2022-10-10T22:26:30.003Z,5.97
2022-10-10T22:28:57.136Z,6.45
2022-10-10T22:31:24.019Z,5.28
2022-10-10T22:33:50.859Z,4.35
2022-10-10T22:36:17.673Z,7.60
2022-10-10T22:38:45.507Z,6.07
2022-10-10T22:41:13.690Z,8.13
2022-10-10T22:43:41.841Z,11.27
2022-10-10T22:46:09.496Z,4.57
2022-10-10T22:48:36.593Z,5.32
2022-10-10T22:51:06.825Z,7.13
2022-10-10T22:53:34.855Z,6.80
2022-10-10T22:56:02.314Z,8.15
2022-10-10T22:58:31.763Z,5.80
2022-10-10T23:01:07.190Z,5.25
2022-10-10T23:03:34.095Z,5.57
2022-10-10T23:06:01.307Z,4.85
2022-10-10T23:08:28.612Z,5.22
2022-10-10T23:10:55.377Z,4.95
2022-10-10T23:13:22.185Z,7.43
2022-10-10T23:15:49.000Z,4.47
2022-10-10T23:18:15.888Z,7.25
2022-10-10T23:20:45.017Z,5.60
2022-10-10T23:23:11.778Z,4.63
2022-10-10T23:25:42.988Z,7.10
2022-10-10T23:28:10.024Z,5.05
2022-10-10T23:30:43.396Z,3.38
2022-10-10T23:33:10.910Z,5.18
2022-10-10T23:35:37.966Z,3.53
2022-10-10T23:38:05.484Z,4.25
2022-10-10T23:40:33.865Z,5.22
2022-10-10T23:43:00.740Z,4.90
2022-10-10T23:45:27.564Z,7.63
2022-10-10T23:47:54.415Z,4.97
2022-10-10T23:50:21.480Z,6.13
2022-10-10T23:52:48.256Z,5.30
2022-10-10T23:55:15.109Z,6.07
2022-10-10T23:57:42.016Z,4.40
